sensor_id;sensor_type;location;lat;lon;timestamp;temperature;humidity
1704;DHT22;849;48.780;9.216;2022-12-18T00:01:52;-3.90;93.30
1704;DHT22;849;48.780;9.216;2022-12-18T00:04:22;-3.90;93.50
1704;DHT22;849;48.780;9.216;2022-12-18T00:06:48;-3.90;93.50
1704;DHT22;849;48.780;9.216;2022-12-18T00:09:14;-4.00;93.60
1704;DHT22;849;48.780;9.216;2022-12-18T00:11:40;-4.00;93.60
1704;DHT22;849;48.780;9.216;2022-12-18T00:14:05;-4.00;93.70
1704;DHT22;849;48.780;9.216;2022-12-18T00:16:31;-4.00;93.40
1704;DHT22;849;48.780;9.216;2022-12-18T00:18:59;-4.10;93.20
1704;DHT22;849;48.780;9.216;2022-12-18T00:21:26;-4.20;93.60
1704;DHT22;849;48.780;9.216;2022-12-18T00:23:52;-4.20;93.90
1704;DHT22;849;48.780;9.216;2022-12-18T00:26:23;-4.10;93.90
1704;DHT22;849;48.780;9.216;2022-12-18T00:28:50;-4.10;93.90
1704;DHT22;849;48.780;9.216;2022-12-18T00:31:19;-4.10;93.90
1704;DHT22;849;48.780;9.216;2022-12-18T00:33:45;-4.10;93.90
1704;DHT22;849;48.780;9.216;2022-12-18T00:36:13;-4.10;94.00
1704;DHT22;849;48.780;9.216;2022-12-18T00:38:40;-4.30;93.80
1704;DHT22;849;48.780;9.216;2022-12-18T00:41:06;-4.40;94.30
1704;DHT22;849;48.780;9.216;2022-12-18T00:43:32;-4.30;94.30
1704;DHT22;849;48.780;9.216;2022-12-18T00:45:58;-4.30;94.50
1704;DHT22;849;48.780;9.216;2022-12-18T00:48:23;-4.30;94.00
1704;DHT22;849;48.780;9.216;2022-12-18T00:50:49;-4.20;94.00
1704;DHT22;849;48.780;9.216;2022-12-18T00:53:16;-4.20;93.80
1704;DHT22;849;48.780;9.216;2022-12-18T00:55:42;-4.20;93.80
1704;DHT22;849;48.780;9.216;2022-12-18T00:58:09;-4.20;93.70
1704;DHT22;849;48.780;9.216;2022-12-18T01:00:35;-4.20;93.70
1704;DHT22;849;48.780;9.216;2022-12-18T01:03:01;-4.20;93.70
1704;DHT22;849;48.780;9.216;2022-12-18T01:05:27;-4.10;93.70
1704;DHT22;849;48.780;9.216;2022-12-18T01:07:53;-4.20;93.50
1704;DHT22;849;48.780;9.216;2022-12-18T01:10:19;-4.10;93.70
1704;DHT22;849;48.780;9.216;2022-12-18T01:12:44;-4.30;93.40
1704;DHT22;849;48.780;9.216;2022-12-18T01:15:12;-4.20;93.70
1704;DHT22;849;48.780;9.216;2022-12-18T01:17:38;-4.20;93.40
1704;DHT22;849;48.780;9.216;2022-12-18T01:20:04;-4.20;93.60
1704;DHT22;849;48.780;9.216;2022-12-18T01:22:30;-4.20;93.90
1704;DHT22;849;48.780;9.216;2022-12-18T01:24:55;-4.20;94.20
1704;DHT22;849;48.780;9.216;2022-12-18T01:27:21;-4.10;94.60
1704;DHT22;849;48.780;9.216;2022-12-18T01:29:47;-4.10;94.80
1704;DHT22;849;48.780;9.216;2022-12-18T01:32:12;-4.10;94.60
1704;DHT22;849;48.780;9.216;2022-12-18T01:34:38;-4.20;94.30
1704;DHT22;849;48.780;9.216;2022-12-18T01:37:05;-4.10;94.30
1704;DHT22;849;48.780;9.216;2022-12-18T01:39:31;-4.20;94.40
1704;DHT22;849;48.780;9.216;2022-12-18T01:41:58;-4.30;94.50
1704;DHT22;849;48.780;9.216;2022-12-18T01:47:22;-4.30;94.50
1704;DHT22;849;48.780;9.216;2022-12-18T01:49:49;-4.20;94.70
1704;DHT22;849;48.780;9.216;2022-12-18T01:52:16;-4.30;94.70
1704;DHT22;849;48.780;9.216;2022-12-18T01:54:42;-4.20;95.10
1704;DHT22;849;48.780;9.216;2022-12-18T01:57:08;-4.10;95.30
1704;DHT22;849;48.780;9.216;2022-12-18T01:59:35;-4.10;95.10
1704;DHT22;849;48.780;9.216;2022-12-18T02:02:02;-4.10;95.20
1704;DHT22;849;48.780;9.216;2022-12-18T02:04:28;-4.20;95.60
1704;DHT22;849;48.780;9.216;2022-12-18T02:07:10;-4.20;95.70
1704;DHT22;849;48.780;9.216;2022-12-18T02:10:11;-4.10;95.70
1704;DHT22;849;48.780;9.216;2022-12-18T02:15:43;-4.10;95.50
1704;DHT22;849;48.780;9.216;2022-12-18T02:18:17;-4.10;95.30
1704;DHT22;849;48.780;9.216;2022-12-18T02:20:49;-4.10;95.60
1704;DHT22;849;48.780;9.216;2022-12-18T02:28:53;-4.20;96.80
1704;DHT22;849;48.780;9.216;2022-12-18T02:31:26;-4.10;97.20
1704;DHT22;849;48.780;9.216;2022-12-18T02:33:59;-4.00;97.20
1704;DHT22;849;48.780;9.216;2022-12-18T02:36:27;-4.00;97.30
1704;DHT22;849;48.780;9.216;2022-12-18T02:38:54;-3.90;97.10
1704;DHT22;849;48.780;9.216;2022-12-18T02:41:21;-3.90;96.90
1704;DHT22;849;48.780;9.216;2022-12-18T02:43:56;-3.80;97.10
1704;DHT22;849;48.780;9.216;2022-12-18T02:46:46;-3.80;96.90
1704;DHT22;849;48.780;9.216;2022-12-18T02:52:21;-3.70;96.90
1704;DHT22;849;48.780;9.216;2022-12-18T02:55:23;-3.70;96.60
1704;DHT22;849;48.780;9.216;2022-12-18T02:57:56;-3.70;96.60
1704;DHT22;849;48.780;9.216;2022-12-18T03:00:41;-3.60;96.40
1704;DHT22;849;48.780;9.216;2022-12-18T03:03:38;-3.80;96.20
1704;DHT22;849;48.780;9.216;2022-12-18T03:06:10;-3.80;96.30
1704;DHT22;849;48.780;9.216;2022-12-18T03:08:48;-3.90;96.40
1704;DHT22;849;48.780;9.216;2022-12-18T03:11:16;-3.80;96.40
1704;DHT22;849;48.780;9.216;2022-12-18T03:14:03;-3.70;96.30
1704;DHT22;849;48.780;9.216;2022-12-18T03:16:31;-3.70;96.20
1704;DHT22;849;48.780;9.216;2022-12-18T03:19:01;-3.80;96.10
1704;DHT22;849;48.780;9.216;2022-12-18T03:21:33;-3.80;96.00
1704;DHT22;849;48.780;9.216;2022-12-18T03:24:06;-3.90;95.90
1704;DHT22;849;48.780;9.216;2022-12-18T03:26:32;-3.80;96.20
1704;DHT22;849;48.780;9.216;2022-12-18T03:29:04;-3.70;96.20
1704;DHT22;849;48.780;9.216;2022-12-18T03:31:32;-3.70;96.00
1704;DHT22;849;48.780;9.216;2022-12-18T03:34:01;-3.70;95.60
1704;DHT22;849;48.780;9.216;2022-12-18T03:36:31;-3.90;95.50
1704;DHT22;849;48.780;9.216;2022-12-18T03:38:57;-4.00;95.50
1704;DHT22;849;48.780;9.216;2022-12-18T03:41:39;-3.90;95.70
1704;DHT22;849;48.780;9.216;2022-12-18T03:44:29;-3.90;95.30
1704;DHT22;849;48.780;9.216;2022-12-18T03:47:16;-4.00;95.20
1704;DHT22;849;48.780;9.216;2022-12-18T03:50:00;-4.00;94.90
1704;DHT22;849;48.780;9.216;2022-12-18T03:52:54;-4.00;94.80
1704;DHT22;849;48.780;9.216;2022-12-18T03:55:22;-4.10;94.60
1704;DHT22;849;48.780;9.216;2022-12-18T03:57:48;-4.20;94.30
1704;DHT22;849;48.780;9.216;2022-12-18T04:00:17;-4.10;94.50
1704;DHT22;849;48.780;9.216;2022-12-18T04:02:47;-4.10;94.20
1704;DHT22;849;48.780;9.216;2022-12-18T04:05:15;-4.20;93.90
1704;DHT22;849;48.780;9.216;2022-12-18T04:07:41;-4.30;93.90
1704;DHT22;849;48.780;9.216;2022-12-18T04:10:09;-4.30;94.10
1704;DHT22;849;48.780;9.216;2022-12-18T04:12:37;-4.40;93.90
1704;DHT22;849;48.780;9.216;2022-12-18T04:15:04;-4.40;94.10
1704;DHT22;849;48.780;9.216;2022-12-18T04:17:29;-4.40;93.80
1704;DHT22;849;48.780;9.216;2022-12-18T04:19:55;-4.40;94.00
1704;DHT22;849;48.780;9.216;2022-12-18T04:22:21;-4.40;93.80
1704;DHT22;849;48.780;9.216;2022-12-18T04:24:47;-4.50;94.10
1704;DHT22;849;48.780;9.216;2022-12-18T04:27:12;-4.50;94.30
1704;DHT22;849;48.780;9.216;2022-12-18T04:29:38;-4.50;94.40
1704;DHT22;849;48.780;9.216;2022-12-18T04:32:04;-4.50;94.90
1704;DHT22;849;48.780;9.216;2022-12-18T04:34:29;-4.40;95.30
1704;DHT22;849;48.780;9.216;2022-12-18T04:36:56;-4.40;95.80
1704;DHT22;849;48.780;9.216;2022-12-18T04:39:21;-4.30;96.20
1704;DHT22;849;48.780;9.216;2022-12-18T04:41:47;-4.20;96.40
1704;DHT22;849;48.780;9.216;2022-12-18T04:44:13;-4.20;96.00
1704;DHT22;849;48.780;9.216;2022-12-18T04:46:39;-4.20;95.90
1704;DHT22;849;48.780;9.216;2022-12-18T04:49:05;-4.30;96.00
1704;DHT22;849;48.780;9.216;2022-12-18T04:51:30;-4.30;96.10
1704;DHT22;849;48.780;9.216;2022-12-18T04:53:56;-4.30;95.90
1704;DHT22;849;48.780;9.216;2022-12-18T04:56:22;-4.30;96.10
1704;DHT22;849;48.780;9.216;2022-12-18T04:58:48;-4.30;96.20
1704;DHT22;849;48.780;9.216;2022-12-18T05:01:15;-4.20;95.90
1704;DHT22;849;48.780;9.216;2022-12-18T05:03:42;-4.30;95.50
1704;DHT22;849;48.780;9.216;2022-12-18T05:06:08;-4.40;95.70
1704;DHT22;849;48.780;9.216;2022-12-18T05:08:34;-4.40;96.10
1704;DHT22;849;48.780;9.216;2022-12-18T05:11:10;-4.40;96.20
1704;DHT22;849;48.780;9.216;2022-12-18T05:13:37;-4.40;96.30
1704;DHT22;849;48.780;9.216;2022-12-18T05:16:04;-4.40;96.70
1704;DHT22;849;48.780;9.216;2022-12-18T05:18:30;-4.30;96.70
1704;DHT22;849;48.780;9.216;2022-12-18T05:20:56;-4.20;96.50
1704;DHT22;849;48.780;9.216;2022-12-18T05:23:23;-4.10;95.90
1704;DHT22;849;48.780;9.216;2022-12-18T05:26:00;-4.30;95.40
1704;DHT22;849;48.780;9.216;2022-12-18T05:28:28;-4.30;95.50
1704;DHT22;849;48.780;9.216;2022-12-18T05:30:57;-4.30;95.50
1704;DHT22;849;48.780;9.216;2022-12-18T05:33:24;-4.40;95.80
1704;DHT22;849;48.780;9.216;2022-12-18T05:35:51;-4.40;96.00
1704;DHT22;849;48.780;9.216;2022-12-18T05:38:18;-4.50;96.20
1704;DHT22;849;48.780;9.216;2022-12-18T05:40:44;-4.40;96.50
1704;DHT22;849;48.780;9.216;2022-12-18T05:43:10;-4.60;96.60
1704;DHT22;849;48.780;9.216;2022-12-18T05:45:39;-4.50;96.80
1704;DHT22;849;48.780;9.216;2022-12-18T05:48:05;-4.40;96.70
1704;DHT22;849;48.780;9.216;2022-12-18T05:50:37;-4.30;96.30
1704;DHT22;849;48.780;9.216;2022-12-18T05:53:04;-4.20;95.70
1704;DHT22;849;48.780;9.216;2022-12-18T05:55:33;-4.20;95.50
1704;DHT22;849;48.780;9.216;2022-12-18T05:58:00;-4.20;95.30
1704;DHT22;849;48.780;9.216;2022-12-18T06:00:26;-4.20;94.50
1704;DHT22;849;48.780;9.216;2022-12-18T06:02:51;-4.30;94.10
1704;DHT22;849;48.780;9.216;2022-12-18T06:05:17;-4.40;93.90
1704;DHT22;849;48.780;9.216;2022-12-18T06:07:43;-4.40;93.80
1704;DHT22;849;48.780;9.216;2022-12-18T06:10:08;-4.40;93.50
1704;DHT22;849;48.780;9.216;2022-12-18T06:12:34;-4.50;93.30
1704;DHT22;849;48.780;9.216;2022-12-18T06:15:00;-4.60;93.40
1704;DHT22;849;48.780;9.216;2022-12-18T06:17:30;-4.50;93.30
1704;DHT22;849;48.780;9.216;2022-12-18T06:19:56;-4.60;92.90
1704;DHT22;849;48.780;9.216;2022-12-18T06:22:21;-4.70;92.90
1704;DHT22;849;48.780;9.216;2022-12-18T06:24:47;-4.70;92.70
1704;DHT22;849;48.780;9.216;2022-12-18T06:27:12;-4.60;92.60
1704;DHT22;849;48.780;9.216;2022-12-18T06:29:38;-4.60;92.30
1704;DHT22;849;48.780;9.216;2022-12-18T06:32:04;-4.80;92.20
1704;DHT22;849;48.780;9.216;2022-12-18T06:34:30;-4.80;92.30
1704;DHT22;849;48.780;9.216;2022-12-18T06:36:55;-4.90;92.30
1704;DHT22;849;48.780;9.216;2022-12-18T06:39:21;-4.90;92.40
1704;DHT22;849;48.780;9.216;2022-12-18T06:41:47;-4.90;92.20
1704;DHT22;849;48.780;9.216;2022-12-18T06:44:12;-4.90;91.90
1704;DHT22;849;48.780;9.216;2022-12-18T06:46:38;-4.90;92.10
1704;DHT22;849;48.780;9.216;2022-12-18T06:49:04;-4.90;92.00
1704;DHT22;849;48.780;9.216;2022-12-18T06:51:30;-4.80;91.80
1704;DHT22;849;48.780;9.216;2022-12-18T06:53:55;-4.90;91.50
1704;DHT22;849;48.780;9.216;2022-12-18T06:56:21;-5.10;91.40
1704;DHT22;849;48.780;9.216;2022-12-18T06:58:47;-5.00;91.80
1704;DHT22;849;48.780;9.216;2022-12-18T07:01:13;-5.00;92.00
1704;DHT22;849;48.780;9.216;2022-12-18T07:03:40;-5.00;92.00
1704;DHT22;849;48.780;9.216;2022-12-18T07:06:13;-5.00;92.00
1704;DHT22;849;48.780;9.216;2022-12-18T07:08:39;-5.10;91.90
1704;DHT22;849;48.780;9.216;2022-12-18T07:11:05;-5.10;92.00
1704;DHT22;849;48.780;9.216;2022-12-18T07:13:31;-5.10;92.10
1704;DHT22;849;48.780;9.216;2022-12-18T07:16:04;-5.10;92.20
1704;DHT22;849;48.780;9.216;2022-12-18T07:18:29;-5.10;91.90
1704;DHT22;849;48.780;9.216;2022-12-18T07:20:55;-5.00;91.90
1704;DHT22;849;48.780;9.216;2022-12-18T07:23:21;-5.10;92.00
1704;DHT22;849;48.780;9.216;2022-12-18T07:25:46;-5.00;92.40
1704;DHT22;849;48.780;9.216;2022-12-18T07:28:12;-5.00;92.30
1704;DHT22;849;48.780;9.216;2022-12-18T07:30:38;-5.00;92.20
1704;DHT22;849;48.780;9.216;2022-12-18T07:33:04;-5.00;92.10
1704;DHT22;849;48.780;9.216;2022-12-18T07:35:29;-5.00;91.80
1704;DHT22;849;48.780;9.216;2022-12-18T07:37:55;-5.10;91.60
1704;DHT22;849;48.780;9.216;2022-12-18T07:40:20;-5.10;92.00
1704;DHT22;849;48.780;9.216;2022-12-18T07:42:46;-5.00;92.40
1704;DHT22;849;48.780;9.216;2022-12-18T07:45:12;-5.00;92.20
1704;DHT22;849;48.780;9.216;2022-12-18T07:47:37;-5.00;92.10
1704;DHT22;849;48.780;9.216;2022-12-18T07:50:04;-4.90;92.10
1704;DHT22;849;48.780;9.216;2022-12-18T07:52:30;-4.90;92.10
1704;DHT22;849;48.780;9.216;2022-12-18T07:54:56;-4.90;92.20
1704;DHT22;849;48.780;9.216;2022-12-18T07:57:21;-4.80;92.60
1704;DHT22;849;48.780;9.216;2022-12-18T07:59:47;-4.80;92.20
1704;DHT22;849;48.780;9.216;2022-12-18T08:02:13;-4.80;92.00
1704;DHT22;849;48.780;9.216;2022-12-18T08:04:39;-4.70;91.90
1704;DHT22;849;48.780;9.216;2022-12-18T08:07:04;-4.60;92.00
1704;DHT22;849;48.780;9.216;2022-12-18T08:09:30;-4.50;92.00
1704;DHT22;849;48.780;9.216;2022-12-18T08:11:55;-4.50;92.80
1704;DHT22;849;48.780;9.216;2022-12-18T08:14:21;-4.50;92.70
1704;DHT22;849;48.780;9.216;2022-12-18T08:16:47;-4.60;92.80
1704;DHT22;849;48.780;9.216;2022-12-18T08:19:12;-4.60;92.80
1704;DHT22;849;48.780;9.216;2022-12-18T08:21:41;-4.70;92.60
1704;DHT22;849;48.780;9.216;2022-12-18T08:24:09;-4.60;92.60
1704;DHT22;849;48.780;9.216;2022-12-18T08:26:35;-4.60;92.50
1704;DHT22;849;48.780;9.216;2022-12-18T08:29:01;-4.70;92.60
1704;DHT22;849;48.780;9.216;2022-12-18T08:31:28;-4.70;92.70
1704;DHT22;849;48.780;9.216;2022-12-18T08:33:55;-4.60;92.80
1704;DHT22;849;48.780;9.216;2022-12-18T08:36:21;-4.60;93.00
1704;DHT22;849;48.780;9.216;2022-12-18T08:38:48;-4.70;93.00
1704;DHT22;849;48.780;9.216;2022-12-18T08:41:15;-4.60;93.50
1704;DHT22;849;48.780;9.216;2022-12-18T08:43:41;-4.70;93.40
1704;DHT22;849;48.780;9.216;2022-12-18T08:46:27;-4.60;93.70
1704;DHT22;849;48.780;9.216;2022-12-18T08:48:54;-4.60;93.70
1704;DHT22;849;48.780;9.216;2022-12-18T08:51:20;-4.50;93.90
1704;DHT22;849;48.780;9.216;2022-12-18T08:53:47;-4.50;93.90
1704;DHT22;849;48.780;9.216;2022-12-18T08:56:13;-4.50;93.90
1704;DHT22;849;48.780;9.216;2022-12-18T08:58:39;-4.40;94.10
1704;DHT22;849;48.780;9.216;2022-12-18T09:01:07;-4.30;94.30
1704;DHT22;849;48.780;9.216;2022-12-18T09:03:34;-4.40;94.20
1704;DHT22;849;48.780;9.216;2022-12-18T09:06:00;-4.30;94.40
1704;DHT22;849;48.780;9.216;2022-12-18T09:08:26;-4.40;94.40
1704;DHT22;849;48.780;9.216;2022-12-18T09:10:52;-4.40;94.50
1704;DHT22;849;48.780;9.216;2022-12-18T09:13:18;-4.40;94.70
1704;DHT22;849;48.780;9.216;2022-12-18T09:15:52;-4.30;94.60
1704;DHT22;849;48.780;9.216;2022-12-18T09:18:20;-4.30;94.70
1704;DHT22;849;48.780;9.216;2022-12-18T09:20:46;-4.30;95.10
1704;DHT22;849;48.780;9.216;2022-12-18T09:23:13;-4.30;95.30
1704;DHT22;849;48.780;9.216;2022-12-18T09:25:39;-4.20;95.30
1704;DHT22;849;48.780;9.216;2022-12-18T09:28:10;-4.30;95.30
1704;DHT22;849;48.780;9.216;2022-12-18T09:30:44;-4.20;95.60
1704;DHT22;849;48.780;9.216;2022-12-18T09:33:10;-4.30;95.50
1704;DHT22;849;48.780;9.216;2022-12-18T09:35:46;-4.30;95.80
1704;DHT22;849;48.780;9.216;2022-12-18T09:38:17;-4.30;96.00
1704;DHT22;849;48.780;9.216;2022-12-18T09:40:54;-4.20;96.60
1704;DHT22;849;48.780;9.216;2022-12-18T09:43:39;-4.10;96.50
1704;DHT22;849;48.780;9.216;2022-12-18T09:46:10;-4.00;97.10
1704;DHT22;849;48.780;9.216;2022-12-18T09:48:46;-4.10;96.80
1704;DHT22;849;48.780;9.216;2022-12-18T09:51:19;-4.10;96.70
1704;DHT22;849;48.780;9.216;2022-12-18T09:53:53;-4.10;97.10
1704;DHT22;849;48.780;9.216;2022-12-18T09:56:22;-4.10;97.30
1704;DHT22;849;48.780;9.216;2022-12-18T09:58:59;-4.00;97.40
1704;DHT22;849;48.780;9.216;2022-12-18T10:01:26;-4.00;97.70
1704;DHT22;849;48.780;9.216;2022-12-18T10:03:53;-3.90;97.80
1704;DHT22;849;48.780;9.216;2022-12-18T10:06:38;-3.70;98.10
1704;DHT22;849;48.780;9.216;2022-12-18T10:09:19;-3.70;97.80
1704;DHT22;849;48.780;9.216;2022-12-18T10:12:12;-3.80;98.10
1704;DHT22;849;48.780;9.216;2022-12-18T10:20:45;-3.50;98.90
1704;DHT22;849;48.780;9.216;2022-12-18T10:26:03;-3.40;99.20
1704;DHT22;849;48.780;9.216;2022-12-18T10:28:30;-3.30;99.50
1704;DHT22;849;48.780;9.216;2022-12-18T10:30:57;-3.20;99.50
1704;DHT22;849;48.780;9.216;2022-12-18T10:33:27;-3.20;99.60
1704;DHT22;849;48.780;9.216;2022-12-18T10:35:54;-3.10;99.70
1704;DHT22;849;48.780;9.216;2022-12-18T10:38:26;-3.10;99.90
1704;DHT22;849;48.780;9.216;2022-12-18T10:53:52;-2.90;99.90
1704;DHT22;849;48.780;9.216;2022-12-18T10:56:20;-2.80;99.90
1704;DHT22;849;48.780;9.216;2022-12-18T10:59:02;-2.80;99.90
1704;DHT22;849;48.780;9.216;2022-12-18T11:01:46;-2.70;99.90
1704;DHT22;849;48.780;9.216;2022-12-18T11:04:34;-2.60;99.90
1704;DHT22;849;48.780;9.216;2022-12-18T11:07:05;-2.50;99.90
1704;DHT22;849;48.780;9.216;2022-12-18T11:09:36;-2.40;99.90
1704;DHT22;849;48.780;9.216;2022-12-18T11:12:18;-2.40;99.90
1704;DHT22;849;48.780;9.216;2022-12-18T11:14:47;-2.30;99.90
1704;DHT22;849;48.780;9.216;2022-12-18T11:20:03;-2.20;99.90
1704;DHT22;849;48.780;9.216;2022-12-18T11:22:31;-2.10;99.90
1704;DHT22;849;48.780;9.216;2022-12-18T11:27:38;-1.80;99.90
1704;DHT22;849;48.780;9.216;2022-12-18T11:35:49;-1.90;99.90
1704;DHT22;849;48.780;9.216;2022-12-18T11:40:49;-1.80;99.90
1704;DHT22;849;48.780;9.216;2022-12-18T11:46:18;-1.90;99.90
1704;DHT22;849;48.780;9.216;2022-12-18T11:51:25;-1.90;99.90
1704;DHT22;849;48.780;9.216;2022-12-18T11:53:51;-1.70;99.90
1704;DHT22;849;48.780;9.216;2022-12-18T11:56:35;-1.60;99.90
1704;DHT22;849;48.780;9.216;2022-12-18T11:59:20;-1.50;99.90
1704;DHT22;849;48.780;9.216;2022-12-18T12:04:54;-1.20;99.90
1704;DHT22;849;48.780;9.216;2022-12-18T12:07:45;-1.20;99.90
1704;DHT22;849;48.780;9.216;2022-12-18T12:29:26;-0.70;99.90
1704;DHT22;849;48.780;9.216;2022-12-18T12:35:03;-0.50;99.90
1704;DHT22;849;48.780;9.216;2022-12-18T12:37:54;-0.30;99.90
1704;DHT22;849;48.780;9.216;2022-12-18T12:40:28;-0.20;99.90
1704;DHT22;849;48.780;9.216;2022-12-18T12:43:24;-0.20;99.90
1704;DHT22;849;48.780;9.216;2022-12-18T12:45:57;-0.10;99.90
1704;DHT22;849;48.780;9.216;2022-12-18T12:48:46;0.10;99.90
1704;DHT22;849;48.780;9.216;2022-12-18T12:51:17;0.10;99.90
1704;DHT22;849;48.780;9.216;2022-12-18T12:53:43;0.20;99.90
1704;DHT22;849;48.780;9.216;2022-12-18T12:56:13;0.20;99.90
1704;DHT22;849;48.780;9.216;2022-12-18T13:02:34;0.20;99.90
1704;DHT22;849;48.780;9.216;2022-12-18T13:04:47;0.10;99.90
1704;DHT22;849;48.780;9.216;2022-12-18T13:07:29;0.20;99.90
1704;DHT22;849;48.780;9.216;2022-12-18T13:13:06;0.30;99.90
1704;DHT22;849;48.780;9.216;2022-12-18T13:18:20;0.40;99.90
1704;DHT22;849;48.780;9.216;2022-12-18T13:31:00;0.20;99.90
1704;DHT22;849;48.780;9.216;2022-12-18T13:36:09;0.50;99.90
1704;DHT22;849;48.780;9.216;2022-12-18T13:38:38;0.60;99.90
1704;DHT22;849;48.780;9.216;2022-12-18T13:43:54;0.60;99.90
1704;DHT22;849;48.780;9.216;2022-12-18T13:46:28;0.70;99.90
1704;DHT22;849;48.780;9.216;2022-12-18T13:49:01;0.70;99.90
1704;DHT22;849;48.780;9.216;2022-12-18T13:51:29;0.60;99.90
1704;DHT22;849;48.780;9.216;2022-12-18T13:54:17;0.60;99.90
1704;DHT22;849;48.780;9.216;2022-12-18T13:56:46;0.60;99.90
1704;DHT22;849;48.780;9.216;2022-12-18T13:59:17;0.70;99.90
1704;DHT22;849;48.780;9.216;2022-12-18T14:01:53;0.80;99.90
1704;DHT22;849;48.780;9.216;2022-12-18T14:04:31;0.90;99.90
1704;DHT22;849;48.780;9.216;2022-12-18T14:07:05;1.00;99.90
1704;DHT22;849;48.780;9.216;2022-12-18T14:09:39;0.90;99.90
1704;DHT22;849;48.780;9.216;2022-12-18T14:12:06;0.90;99.90
1704;DHT22;849;48.780;9.216;2022-12-18T14:14:52;0.90;99.90
1704;DHT22;849;48.780;9.216;2022-12-18T14:17:18;0.90;99.90
1704;DHT22;849;48.780;9.216;2022-12-18T14:19:49;0.90;99.90
1704;DHT22;849;48.780;9.216;2022-12-18T14:22:24;1.00;99.90
1704;DHT22;849;48.780;9.216;2022-12-18T14:27:46;0.90;99.90
1704;DHT22;849;48.780;9.216;2022-12-18T14:30:30;0.90;99.90
1704;DHT22;849;48.780;9.216;2022-12-18T14:33:11;0.90;99.90
1704;DHT22;849;48.780;9.216;2022-12-18T14:35:59;0.80;99.90
1704;DHT22;849;48.780;9.216;2022-12-18T14:38:30;0.80;99.90
1704;DHT22;849;48.780;9.216;2022-12-18T14:41:09;0.70;99.90
1704;DHT22;849;48.780;9.216;2022-12-18T14:43:37;0.70;99.90
1704;DHT22;849;48.780;9.216;2022-12-18T14:46:05;0.70;99.90
1704;DHT22;849;48.780;9.216;2022-12-18T14:48:33;0.70;99.90
1704;DHT22;849;48.780;9.216;2022-12-18T14:51:02;0.70;99.90
1704;DHT22;849;48.780;9.216;2022-12-18T14:53:41;0.60;99.90
1704;DHT22;849;48.780;9.216;2022-12-18T14:56:20;0.60;99.90
1704;DHT22;849;48.780;9.216;2022-12-18T14:58:54;0.50;99.90
1704;DHT22;849;48.780;9.216;2022-12-18T15:01:25;0.60;99.90
1704;DHT22;849;48.780;9.216;2022-12-18T15:03:54;0.50;99.90
1704;DHT22;849;48.780;9.216;2022-12-18T15:06:37;0.40;99.90
1704;DHT22;849;48.780;9.216;2022-12-18T15:09:20;0.30;99.90
1704;DHT22;849;48.780;9.216;2022-12-18T15:11:47;0.30;99.90
1704;DHT22;849;48.780;9.216;2022-12-18T15:16:56;0.00;99.90
1704;DHT22;849;48.780;9.216;2022-12-18T15:19:32;0.00;99.90
1704;DHT22;849;48.780;9.216;2022-12-18T15:21:59;0.00;99.90
1704;DHT22;849;48.780;9.216;2022-12-18T15:24:29;-0.10;99.90
1704;DHT22;849;48.780;9.216;2022-12-18T15:26:55;-0.20;99.90
1704;DHT22;849;48.780;9.216;2022-12-18T15:29:22;-0.40;99.90
1704;DHT22;849;48.780;9.216;2022-12-18T15:32:03;-0.30;99.90
1704;DHT22;849;48.780;9.216;2022-12-18T15:34:29;-0.30;99.90
1704;DHT22;849;48.780;9.216;2022-12-18T15:36:55;-0.20;99.90
1704;DHT22;849;48.780;9.216;2022-12-18T15:39:21;-0.30;99.90
1704;DHT22;849;48.780;9.216;2022-12-18T15:41:46;-0.30;99.90
1704;DHT22;849;48.780;9.216;2022-12-18T15:44:32;-0.30;99.90
1704;DHT22;849;48.780;9.216;2022-12-18T15:46:59;-0.30;99.90
1704;DHT22;849;48.780;9.216;2022-12-18T15:49:24;-0.20;99.90
1704;DHT22;849;48.780;9.216;2022-12-18T15:51:58;-0.20;99.90
1704;DHT22;849;48.780;9.216;2022-12-18T15:54:30;-0.20;99.90
1704;DHT22;849;48.780;9.216;2022-12-18T15:57:14;-0.30;99.90
1704;DHT22;849;48.780;9.216;2022-12-18T15:59:50;-0.30;99.90
1704;DHT22;849;48.780;9.216;2022-12-18T16:02:18;-0.40;99.90
1704;DHT22;849;48.780;9.216;2022-12-18T16:04:45;-0.50;99.90
1704;DHT22;849;48.780;9.216;2022-12-18T16:07:13;-0.40;99.90
1704;DHT22;849;48.780;9.216;2022-12-18T16:09:39;-0.40;99.90
1704;DHT22;849;48.780;9.216;2022-12-18T16:12:18;-0.50;99.90
1704;DHT22;849;48.780;9.216;2022-12-18T16:14:45;-0.50;99.90
1704;DHT22;849;48.780;9.216;2022-12-18T16:17:11;-0.50;99.90
1704;DHT22;849;48.780;9.216;2022-12-18T16:19:38;-0.50;99.90
1704;DHT22;849;48.780;9.216;2022-12-18T16:22:03;-0.50;99.90
1704;DHT22;849;48.780;9.216;2022-12-18T16:24:32;-0.50;99.90
1704;DHT22;849;48.780;9.216;2022-12-18T16:27:00;-0.40;99.90
1704;DHT22;849;48.780;9.216;2022-12-18T16:29:27;-0.50;99.90
1704;DHT22;849;48.780;9.216;2022-12-18T16:31:57;-0.50;99.90
1704;DHT22;849;48.780;9.216;2022-12-18T16:34:28;-0.50;99.90
1704;DHT22;849;48.780;9.216;2022-12-18T16:37:03;-0.40;99.90
1704;DHT22;849;48.780;9.216;2022-12-18T16:39:29;-0.60;99.90
1704;DHT22;849;48.780;9.216;2022-12-18T16:41:56;-0.80;99.90
1704;DHT22;849;48.780;9.216;2022-12-18T16:44:21;-0.70;99.90
1704;DHT22;849;48.780;9.216;2022-12-18T16:46:47;-0.70;99.90
1704;DHT22;849;48.780;9.216;2022-12-18T16:49:17;-0.60;99.90
1704;DHT22;849;48.780;9.216;2022-12-18T16:51:45;-0.50;99.90
1704;DHT22;849;48.780;9.216;2022-12-18T16:54:11;-0.40;99.90
1704;DHT22;849;48.780;9.216;2022-12-18T16:56:37;-0.40;99.90
1704;DHT22;849;48.780;9.216;2022-12-18T16:59:03;-0.40;99.90
1704;DHT22;849;48.780;9.216;2022-12-18T17:01:30;-0.40;99.90
1704;DHT22;849;48.780;9.216;2022-12-18T17:04:04;-0.30;99.90
1704;DHT22;849;48.780;9.216;2022-12-18T17:06:33;-0.40;99.90
1704;DHT22;849;48.780;9.216;2022-12-18T17:09:02;-0.40;99.90
1704;DHT22;849;48.780;9.216;2022-12-18T17:11:30;-0.40;99.90
1704;DHT22;849;48.780;9.216;2022-12-18T17:13:56;-0.50;99.90
1704;DHT22;849;48.780;9.216;2022-12-18T17:16:22;-0.50;99.90
1704;DHT22;849;48.780;9.216;2022-12-18T17:18:48;-0.50;99.90
1704;DHT22;849;48.780;9.216;2022-12-18T17:21:14;-0.50;99.90
1704;DHT22;849;48.780;9.216;2022-12-18T17:23:41;-0.40;99.90
1704;DHT22;849;48.780;9.216;2022-12-18T17:26:08;-0.40;99.90
1704;DHT22;849;48.780;9.216;2022-12-18T17:28:35;-0.40;99.90
1704;DHT22;849;48.780;9.216;2022-12-18T17:31:02;-0.40;99.90
1704;DHT22;849;48.780;9.216;2022-12-18T17:33:34;-0.40;99.90
1704;DHT22;849;48.780;9.216;2022-12-18T17:36:00;-0.40;99.90
1704;DHT22;849;48.780;9.216;2022-12-18T17:38:25;-0.40;99.90
1704;DHT22;849;48.780;9.216;2022-12-18T17:40:52;-0.40;99.90
1704;DHT22;849;48.780;9.216;2022-12-18T17:43:17;-0.40;99.90
1704;DHT22;849;48.780;9.216;2022-12-18T17:45:43;-0.40;99.90
1704;DHT22;849;48.780;9.216;2022-12-18T17:48:09;-0.40;99.90
1704;DHT22;849;48.780;9.216;2022-12-18T17:50:35;-0.50;99.90
1704;DHT22;849;48.780;9.216;2022-12-18T17:53:02;-0.50;99.90
1704;DHT22;849;48.780;9.216;2022-12-18T17:55:28;-0.40;99.90
1704;DHT22;849;48.780;9.216;2022-12-18T17:57:54;-0.40;99.90
1704;DHT22;849;48.780;9.216;2022-12-18T18:00:20;-0.40;99.90
1704;DHT22;849;48.780;9.216;2022-12-18T18:02:46;-0.40;99.90
1704;DHT22;849;48.780;9.216;2022-12-18T18:05:12;-0.40;99.90
1704;DHT22;849;48.780;9.216;2022-12-18T18:07:38;-0.20;99.90
1704;DHT22;849;48.780;9.216;2022-12-18T18:10:05;-0.10;99.90
1704;DHT22;849;48.780;9.216;2022-12-18T18:12:33;-0.10;99.90
1704;DHT22;849;48.780;9.216;2022-12-18T18:15:17;-0.10;99.90
1704;DHT22;849;48.780;9.216;2022-12-18T18:17:43;0.00;99.90
1704;DHT22;849;48.780;9.216;2022-12-18T18:20:09;0.00;99.90
1704;DHT22;849;48.780;9.216;2022-12-18T18:22:35;-0.10;99.90
1704;DHT22;849;48.780;9.216;2022-12-18T18:25:00;-0.10;99.90
1704;DHT22;849;48.780;9.216;2022-12-18T18:27:28;0.00;99.90